Time;durP1;ratioP1;P1;durP2;ratioP2;P2;SDS_P1;SDS_P2;PMS_P1;PMS_P2;Temp;Humidity;BMP_temperature;BMP_pressure;BME280_temperature;BME280_humidity;BME280_pressure;Samples;Min_cycle;Max_cycle;Signal;HPM_P1;HPM_P2
2023/07/21 00:00:45;;;;;;;3.20;2.65;;;;;;;11.94;100.00;98213.72;4175123;28;20209;-70
2023/07/21 00:02:46;;;;;;;3.72;3.20;;;;;;;11.84;100.00;98204.22;4173453;28;20053;-70
2023/07/21 00:04:46;;;;;;;2.83;2.40;;;;;;;11.78;100.00;98206.53;4174743;28;20052;-70
2023/07/21 00:06:47;;;;;;;4.82;2.90;;;;;;;11.79;100.00;98208.13;4174763;28;20039;-70
2023/07/21 00:08:47;;;;;;;4.72;2.80;;;;;;;11.82;100.00;98214.88;4174958;28;20041;-70
2023/07/21 00:10:47;;;;;;;3.10;2.75;;;;;;;11.80;100.00;98211.72;4174546;28;20136;-70
2023/07/21 00:12:48;;;;;;;5.10;2.88;;;;;;;11.77;100.00;98209.72;4174140;28;20048;-70
2023/07/21 00:14:48;;;;;;;3.95;2.50;;;;;;;11.71;100.00;98206.50;4175064;28;20049;-70
2023/07/21 00:16:53;;;;;;;4.10;3.08;;;;;;;11.66;100.00;98206.88;4173641;28;20144;-70
2023/07/21 00:18:53;;;;;;;3.85;2.80;;;;;;;11.62;100.00;98205.31;4174244;28;20409;-70
2023/07/21 00:20:54;;;;;;;4.25;2.70;;;;;;;11.57;100.00;98198.16;4174253;28;20037;-70
2023/07/21 00:22:54;;;;;;;5.05;2.72;;;;;;;11.51;100.00;98185.88;4173929;28;20045;-70
2023/07/21 00:24:54;;;;;;;7.63;2.85;;;;;;;11.45;100.00;98181.91;4173942;28;20037;-70
2023/07/21 00:26:58;;;;;;;5.40;3.05;;;;;;;11.41;100.00;98181.88;4174520;28;20041;-70
2023/07/21 00:28:59;;;;;;;2.85;2.22;;;;;;;11.42;100.00;98182.66;4174549;28;20048;-70
2023/07/21 00:30:59;;;;;;;4.35;2.50;;;;;;;11.40;100.00;98185.84;4173958;28;20489;-70
2023/07/21 00:33:00;;;;;;;3.03;2.28;;;;;;;11.38;100.00;98181.88;4173798;28;20048;-70
2023/07/21 00:35:04;;;;;;;3.50;2.47;;;;;;;11.35;100.00;98177.91;4174144;28;20043;-70
2023/07/21 00:37:04;;;;;;;2.72;2.33;;;;;;;11.30;100.00;98183.81;4173924;28;20538;-70
2023/07/21 00:39:05;;;;;;;6.20;2.78;;;;;;;11.29;100.00;98173.13;4174456;28;20048;-70
2023/07/21 00:41:05;;;;;;;5.78;2.60;;;;;;;11.24;100.00;98175.09;4173957;28;20132;-70
2023/07/21 00:43:15;;;;;;;4.03;2.42;;;;;;;11.20;100.00;98171.53;4173783;28;20048;-70
2023/07/21 00:45:15;;;;;;;3.70;2.80;;;;;;;11.20;100.00;98179.03;4174872;28;20040;-70
2023/07/21 00:47:16;;;;;;;3.10;2.80;;;;;;;11.13;100.00;98179.78;4174207;28;20060;-70
2023/07/21 00:49:16;;;;;;;3.50;2.28;;;;;;;11.11;100.00;98173.06;4174320;28;20110;-70
2023/07/21 00:51:19;;;;;;;2.88;2.42;;;;;;;11.04;100.00;98168.28;4173920;28;20385;-70
2023/07/21 00:53:20;;;;;;;4.18;3.10;;;;;;;11.03;100.00;98177.00;4173568;28;20049;-70
2023/07/21 00:55:21;;;;;;;3.15;2.30;;;;;;;11.04;100.00;98167.50;4174231;28;20048;-70
2023/07/21 00:57:22;;;;;;;2.50;2.08;;;;;;;11.11;100.00;98162.00;4173970;28;20067;-70
2023/07/21 00:59:23;;;;;;;4.57;2.30;;;;;;;11.11;100.00;98157.25;4174099;28;20049;-70
2023/07/21 01:01:23;;;;;;;4.22;2.75;;;;;;;11.14;100.00;98150.91;4173776;28;20040;-70
2023/07/21 01:03:24;;;;;;;4.50;2.80;;;;;;;11.18;100.00;98160.06;4173138;28;20041;-70
2023/07/21 01:05:25;;;;;;;4.05;2.63;;;;;;;11.11;100.00;98151.72;4173789;28;20335;-70
2023/07/21 01:07:26;;;;;;;3.17;2.50;;;;;;;11.06;100.00;98149.31;4173684;28;20171;-70
2023/07/21 01:09:27;;;;;;;3.47;2.78;;;;;;;11.03;100.00;98144.56;4173913;28;20124;-70
2023/07/21 01:11:28;;;;;;;2.97;2.42;;;;;;;11.02;100.00;98144.97;4173795;28;20041;-70
2023/07/21 01:13:31;;;;;;;3.15;2.60;;;;;;;10.97;100.00;98141.38;4173222;28;20057;-70
2023/07/21 01:15:34;;;;;;;3.65;2.78;;;;;;;11.05;100.00;98139.41;4173588;28;20063;-70
2023/07/21 01:17:35;;;;;;;7.05;2.88;;;;;;;11.01;100.00;98133.09;4173150;28;20048;-70
2023/07/21 01:19:37;;;;;;;3.60;3.00;;;;;;;10.95;100.00;98127.13;4172940;28;20037;-70
2023/07/21 01:21:43;;;;;;;4.95;2.70;;;;;;;10.91;100.00;98140.13;4172892;28;20033;-70
2023/07/21 01:24:00;;;;;;;4.22;2.60;;;;;;;10.89;100.00;98131.44;4172176;28;20389;-70
2023/07/21 01:26:00;;;;;;;4.15;3.15;;;;;;;10.80;100.00;98117.16;4172932;28;20454;-70
2023/07/21 01:28:04;;;;;;;3.72;2.53;;;;;;;10.74;100.00;98124.25;4172799;28;20126;-70
2023/07/21 01:30:11;;;;;;;3.35;2.45;;;;;;;10.68;100.00;98114.75;4172429;28;20041;-70
2023/07/21 01:32:14;;;;;;;3.78;2.90;;;;;;;10.63;100.00;98118.66;4173119;28;20072;-70
2023/07/21 01:34:15;;;;;;;3.00;2.70;;;;;;;10.58;100.00;98110.72;4172610;28;20466;-70
2023/07/21 01:36:17;;;;;;;3.70;2.47;;;;;;;10.59;100.00;98114.28;4173343;28;20091;-70
2023/07/21 01:38:19;;;;;;;2.88;2.40;;;;;;;10.57;100.00;98106.38;4173477;28;20036;-70
2023/07/21 01:40:20;;;;;;;4.60;2.80;;;;;;;10.55;100.00;98107.94;4173471;28;20117;-70
2023/07/21 01:42:29;;;;;;;3.33;2.40;;;;;;;10.52;100.00;98109.53;4172836;28;20045;-70
2023/07/21 01:44:29;;;;;;;3.95;2.90;;;;;;;10.55;100.00;98110.72;4173348;28;20120;-70
2023/07/21 01:46:29;;;;;;;3.55;2.70;;;;;;;10.55;100.00;98111.50;4173521;28;20460;-70
2023/07/21 01:48:30;;;;;;;2.70;2.30;;;;;;;10.60;100.00;98116.69;4173833;28;20033;-70
2023/07/21 01:50:31;;;;;;;3.72;3.10;;;;;;;10.62;100.00;98111.53;4173016;28;20055;-70
2023/07/21 01:52:34;;;;;;;2.92;2.40;;;;;;;10.65;100.00;98110.75;4172240;28;20160;-70
2023/07/21 01:54:47;;;;;;;3.08;2.70;;;;;;;10.71;100.00;98110.41;4173277;28;20045;-70
2023/07/21 01:56:55;;;;;;;4.28;3.00;;;;;;;10.67;100.00;98108.44;4173423;28;20049;-70
2023/07/21 01:59:02;;;;;;;8.80;2.92;;;;;;;10.69;100.00;98110.81;4173192;28;20119;-70
2023/07/21 02:01:03;;;;;;;4.10;2.70;;;;;;;10.72;100.00;98112.00;4172885;28;20052;-70
2023/07/21 02:03:04;;;;;;;3.38;2.78;;;;;;;10.66;100.00;98101.28;4172343;28;20041;-70
2023/07/21 02:05:05;;;;;;;3.88;3.28;;;;;;;10.61;100.00;98098.91;4173681;28;20041;-70
2023/07/21 02:07:06;;;;;;;3.45;3.15;;;;;;;10.60;100.00;98104.81;4173084;28;20050;-70
2023/07/21 02:09:06;;;;;;;4.90;3.08;;;;;;;10.57;100.00;98094.50;4173010;28;20212;-70
2023/07/21 02:11:07;;;;;;;2.95;2.63;;;;;;;10.56;100.00;98093.72;4173070;28;20513;-70
2023/07/21 02:13:07;;;;;;;3.30;2.72;;;;;;;10.58;100.00;98099.66;4172789;28;20060;-70
2023/07/21 02:15:09;;;;;;;3.80;3.35;;;;;;;10.54;100.00;98104.38;4172418;28;20037;-70
2023/07/21 02:17:09;;;;;;;4.43;3.35;;;;;;;10.50;100.00;98102.78;4173196;28;20033;-70
2023/07/21 02:19:09;;;;;;;3.28;2.97;;;;;;;10.51;100.00;98110.72;4173192;28;20048;-70
2023/07/21 02:21:10;;;;;;;4.80;2.92;;;;;;;10.48;100.00;98097.63;4172764;28;20033;-70
2023/07/21 02:23:12;;;;;;;4.57;3.15;;;;;;;10.49;100.00;98099.22;4172361;28;20373;-70
2023/07/21 02:25:13;;;;;;;3.83;3.03;;;;;;;10.48;100.00;98094.88;4172808;28;20049;-70
2023/07/21 02:27:14;;;;;;;4.45;2.75;;;;;;;10.50;100.00;98098.03;4173383;28;20047;-70
2023/07/21 02:29:14;;;;;;;4.10;3.15;;;;;;;10.49;100.00;98090.13;4172794;28;20568;-70
2023/07/21 02:31:14;;;;;;;3.65;3.05;;;;;;;10.50;100.00;98094.47;4172933;28;20049;-70
2023/07/21 02:33:15;;;;;;;3.42;3.08;;;;;;;10.46;100.00;98088.13;4172358;28;20072;-70
2023/07/21 02:35:15;;;;;;;3.55;2.80;;;;;;;10.49;100.00;98098.41;4172986;28;20033;-70
2023/07/21 02:37:15;;;;;;;5.60;3.42;;;;;;;10.45;100.00;98094.84;4172968;28;20067;-69
2023/07/21 02:39:16;;;;;;;4.10;2.90;;;;;;;10.46;100.00;98094.47;4172745;28;20100;-70
2023/07/21 02:41:16;;;;;;;4.80;3.25;;;;;;;10.41;100.00;98086.53;4172834;28;20244;-70
2023/07/21 02:43:17;;;;;;;3.20;2.80;;;;;;;10.43;100.00;98100.00;4172048;28;20660;-69
2023/07/21 02:45:18;;;;;;;2.67;2.42;;;;;;;10.41;100.00;98097.59;4173236;28;20033;-69
2023/07/21 02:47:18;;;;;;;4.80;3.13;;;;;;;10.42;100.00;98093.63;4172976;28;20148;-70
2023/07/21 02:49:18;;;;;;;3.25;2.95;;;;;;;10.47;100.00;98081.44;4172818;28;20704;-70
2023/07/21 02:51:19;;;;;;;3.35;2.90;;;;;;;10.46;100.00;98094.47;4172784;28;20049;-70
2023/07/21 02:53:20;;;;;;;5.85;2.70;;;;;;;10.50;100.00;98095.25;4172269;28;20049;-70
2023/07/21 02:55:20;;;;;;;2.97;2.70;;;;;;;10.53;100.00;98082.66;4172779;28;20044;-69
2023/07/21 02:57:21;;;;;;;4.90;3.50;;;;;;;10.57;100.00;98091.75;4173063;28;20041;-70
2023/07/21 02:59:23;;;;;;;6.25;3.00;;;;;;;10.59;100.00;98095.72;4172899;28;20049;-70
2023/07/21 03:01:23;;;;;;;4.95;2.97;;;;;;;10.63;100.00;98088.22;4172724;28;20045;-70
2023/07/21 03:03:25;;;;;;;12.18;3.80;;;;;;;10.69;100.00;98080.38;4172235;28;20041;-70
2023/07/21 03:05:25;;;;;;;4.13;2.95;;;;;;;10.72;100.00;98084.31;4172919;28;20060;-70
2023/07/21 03:07:26;;;;;;;4.70;3.03;;;;;;;10.72;100.00;98078.78;4173146;28;20033;-70
2023/07/21 03:09:26;;;;;;;5.82;3.53;;;;;;;10.69;100.00;98083.13;4172811;28;20343;-70
2023/07/21 03:11:28;;;;;;;5.03;3.53;;;;;;;10.71;100.00;98094.59;4172796;28;20078;-70
2023/07/21 03:13:28;;;;;;;3.50;3.03;;;;;;;10.73;100.00;98086.69;4172239;28;20473;-70
2023/07/21 03:15:28;;;;;;;5.72;3.00;;;;;;;10.74;100.00;98079.97;4173202;28;20037;-70
2023/07/21 03:17:29;;;;;;;5.55;2.90;;;;;;;10.81;100.00;98087.50;4172281;28;20044;-70
2023/07/21 03:19:32;;;;;;;3.95;2.92;;;;;;;10.81;100.00;98080.00;4172546;28;20053;-70
2023/07/21 03:21:33;;;;;;;5.18;3.10;;;;;;;10.86;100.00;98070.56;4172798;28;20144;-70
2023/07/21 03:23:33;;;;;;;3.42;2.92;;;;;;;10.86;100.00;98071.34;4172193;28;20068;-70
2023/07/21 03:25:34;;;;;;;3.00;2.70;;;;;;;10.90;100.00;98074.09;4172425;28;20053;-70
2023/07/21 03:27:35;;;;;;;3.75;3.00;;;;;;;10.88;100.00;98073.72;4173416;28;20393;-70
2023/07/21 03:29:36;;;;;;;5.20;2.78;;;;;;;10.86;100.00;98074.09;4175500;28;20048;-70
2023/07/21 03:31:36;;;;;;;7.13;3.20;;;;;;;10.85;100.00;98071.75;4174859;28;20041;-70
2023/07/21 03:33:37;;;;;;;4.13;2.78;;;;;;;10.82;100.00;98072.50;4174817;28;20036;-70
2023/07/21 03:35:37;;;;;;;3.97;3.30;;;;;;;10.81;100.00;98071.69;4175400;28;20264;-70
2023/07/21 03:37:37;;;;;;;6.20;3.30;;;;;;;10.83;100.00;98068.53;4175406;28;20106;-70
2023/07/21 03:39:38;;;;;;;4.07;3.28;;;;;;;10.82;100.00;98062.22;4175219;28;20388;-70
2023/07/21 03:41:38;;;;;;;5.55;2.97;;;;;;;10.83;100.00;98072.09;4175547;28;20029;-70
2023/07/21 03:43:39;;;;;;;3.95;3.10;;;;;;;10.89;100.00;98064.22;4173581;28;20072;-70
2023/07/21 03:45:39;;;;;;;3.75;3.10;;;;;;;10.94;100.00;98063.84;4173956;28;20152;-70
2023/07/21 03:47:40;;;;;;;6.07;3.42;;;;;;;10.92;100.00;98063.44;4169673;28;20060;-70
2023/07/21 03:49:40;;;;;;;4.68;3.63;;;;;;;10.87;100.00;98053.56;4167813;28;20155;-70
2023/07/21 03:51:40;;;;;;;5.80;2.80;;;;;;;10.87;100.00;98052.75;4174527;28;20167;-70
2023/07/21 03:53:41;;;;;;;3.30;2.80;;;;;;;10.90;100.00;98052.75;4174132;28;20029;-70
2023/07/21 03:55:43;;;;;;;4.97;3.08;;;;;;;10.87;100.00;98053.56;4174744;28;20055;-70
2023/07/21 03:57:43;;;;;;;6.72;2.63;;;;;;;10.90;100.00;98049.19;4174748;28;20548;-70
2023/07/21 03:59:43;;;;;;;4.28;3.22;;;;;;;10.92;100.00;98060.66;4172655;28;20094;-70
2023/07/21 04:01:44;;;;;;;3.13;2.83;;;;;;;10.92;100.00;98057.91;4173753;28;20135;-70
2023/07/21 04:03:44;;;;;;;4.95;3.10;;;;;;;10.93;100.00;98056.75;4172690;28;20424;-70
2023/07/21 04:05:45;;;;;;;3.45;2.90;;;;;;;11.00;100.00;98055.94;4174575;28;20272;-70
2023/07/21 04:07:45;;;;;;;6.05;2.85;;;;;;;11.08;100.00;98052.00;4174381;28;20061;-70
2023/07/21 04:09:46;;;;;;;3.85;2.80;;;;;;;11.16;100.00;98054.41;4174933;28;20778;-70
2023/07/21 04:11:47;;;;;;;3.80;2.90;;;;;;;11.21;100.00;98042.97;4174468;28;20037;-70
2023/07/21 04:13:47;;;;;;;4.10;3.38;;;;;;;11.25;100.00;98041.00;4173895;28;20067;-70
2023/07/21 04:15:51;;;;;;;5.00;3.20;;;;;;;11.29;100.00;98048.50;4174407;28;20041;-70
2023/07/21 04:17:54;;;;;;;4.30;2.92;;;;;;;11.30;100.00;98045.34;4174609;28;20314;-70
2023/07/21 04:19:56;;;;;;;5.88;3.47;;;;;;;11.29;100.00;98049.31;4174231;28;20033;-70
2023/07/21 04:21:57;;;;;;;3.40;3.10;;;;;;;11.31;100.00;98057.22;4174152;28;20040;-70
2023/07/21 04:23:57;;;;;;;6.00;3.08;;;;;;;11.33;100.00;98055.63;4173185;28;20032;-70
2023/07/21 04:25:57;;;;;;;6.00;3.50;;;;;;;11.33;100.00;98066.72;4173582;28;20041;-70
2023/07/21 04:27:58;;;;;;;4.43;2.85;;;;;;;11.37;100.00;98066.72;4172656;28;20244;-70
2023/07/21 04:29:59;;;;;;;6.13;4.00;;;;;;;11.38;100.00;98060.78;4173660;28;20037;-70
2023/07/21 04:31:59;;;;;;;4.68;3.25;;;;;;;11.40;100.00;98055.66;4174046;28;20050;-70
2023/07/21 04:33:59;;;;;;;5.03;3.58;;;;;;;11.46;100.00;98054.06;4173287;28;20052;-70
2023/07/21 04:36:00;;;;;;;7.63;4.13;;;;;;;11.46;100.00;98050.50;4174026;28;20040;-70
2023/07/21 04:38:00;;;;;;;4.75;3.28;;;;;;;11.47;100.00;98052.09;4173399;28;20052;-70
2023/07/21 04:40:01;;;;;;;5.07;3.30;;;;;;;11.46;100.00;98056.84;4173413;28;20044;-71
2023/07/21 04:42:01;;;;;;;6.60;3.70;;;;;;;11.59;100.00;98067.56;4173889;28;20471;-70
2023/07/21 04:44:02;;;;;;;7.40;3.88;;;;;;;11.40;100.00;98086.13;4169836;28;20105;-70
2023/07/21 04:46:02;;;;;;;5.03;4.30;;;;;;;11.29;100.00;98093.63;4174337;28;20468;-70
2023/07/21 04:48:03;;;;;;;6.32;4.05;;;;;;;11.30;100.00;98088.88;4173790;28;20044;-70
2023/07/21 04:50:03;;;;;;;7.15;4.03;;;;;;;11.32;100.00;98094.81;4173952;28;20017;-70
2023/07/21 04:52:04;;;;;;;8.38;3.92;;;;;;;11.29;100.00;98093.63;4173904;28;20032;-70
2023/07/21 04:54:04;;;;;;;4.57;4.00;;;;;;;11.28;100.00;98094.81;4172442;28;20035;-70
2023/07/21 04:56:06;;;;;;;5.80;4.20;;;;;;;11.22;100.00;98093.59;4174233;28;20032;-69
2023/07/21 04:58:08;;;;;;;7.73;3.70;;;;;;;11.24;100.00;98103.09;4172477;28;20017;-70
2023/07/21 05:00:11;;;;;;;6.82;4.22;;;;;;;11.25;100.00;98099.16;4174331;28;20255;-70
2023/07/21 05:02:12;;;;;;;6.85;4.00;;;;;;;11.22;100.00;98093.59;4173877;28;20110;-70
2023/07/21 05:04:14;;;;;;;6.60;3.97;;;;;;;11.22;100.00;98112.97;4173593;28;20029;-70
2023/07/21 05:06:15;;;;;;;;;;;;;;;11.23;100.00;98111.78;4174110;28;20032;-70
2023/07/21 05:08:15;;;;;;;5.68;4.75;;;;;;;11.14;100.00;98108.59;4174224;28;20361;-70
2023/07/21 05:10:16;;;;;;;7.97;4.47;;;;;;;11.14;100.00;98108.59;4173716;28;20123;-70
2023/07/21 05:12:16;;;;;;;8.05;4.85;;;;;;;11.17;100.00;98099.50;4169596;28;20069;-70
2023/07/21 05:14:17;;;;;;;7.05;4.68;;;;;;;11.11;100.00;98112.94;4163546;28;20120;-70
2023/07/21 05:16:18;;;;;;;6.30;4.20;;;;;;;11.16;100.00;98098.72;4169641;28;20041;-70
2023/07/21 05:18:18;;;;;;;9.40;5.80;;;;;;;11.19;100.00;98103.47;4171326;28;20033;-70
2023/07/21 05:20:19;;;;;;;14.18;4.63;;;;;;;11.17;100.00;98103.09;4173337;28;20094;-70
2023/07/21 05:22:19;;;;;;;5.05;4.20;;;;;;;11.22;100.00;98104.66;4173554;28;20583;-70
2023/07/21 05:24:20;;;;;;;7.20;4.93;;;;;;;11.26;100.00;98111.03;4172738;28;20115;-70
2023/07/21 05:26:23;;;;;;;6.90;4.57;;;;;;;11.29;100.00;98101.13;4172575;28;20079;-70
2023/07/21 05:28:24;;;;;;;7.97;4.68;;;;;;;11.30;100.00;98116.56;4171091;28;20143;-70
2023/07/21 05:30:24;;;;;;;6.63;4.97;;;;;;;11.31;100.00;98112.59;4173521;28;20411;-70
2023/07/21 05:32:24;;;;;;;7.00;4.47;;;;;;;11.33;100.00;98113.00;4172906;28;20148;-70
2023/07/21 05:34:25;;;;;;;6.40;4.53;;;;;;;11.32;100.00;98122.50;4173215;28;20037;-70
2023/07/21 05:36:25;;;;;;;6.05;4.85;;;;;;;11.36;100.00;98118.56;4173561;28;20041;-70
2023/07/21 05:38:26;;;;;;;6.60;4.85;;;;;;;11.39;100.00;98116.97;4091988;28;20050;-70
2023/07/21 05:40:26;;;;;;;5.38;4.65;;;;;;;11.41;100.00;98120.13;4178254;28;20032;-70
2023/07/21 05:42:26;;;;;;;8.27;5.00;;;;;;;11.40;100.00;98124.09;4172425;28;20049;-70
2023/07/21 05:44:27;;;;;;;6.82;4.90;;;;;;;11.40;100.00;98118.56;4172759;28;20056;-70
2023/07/21 05:46:27;;;;;;;5.55;4.80;;;;;;;11.44;100.00;98113.84;4174031;28;20045;-70
2023/07/21 05:48:27;;;;;;;5.72;4.78;;;;;;;11.49;100.00;98116.19;4173119;28;20492;-70
2023/07/21 05:50:28;;;;;;;7.20;5.15;;;;;;;11.50;100.00;98118.59;4173488;28;20033;-70
2023/07/21 05:52:28;;;;;;;6.85;4.97;;;;;;;11.56;100.00;98107.91;4171843;28;20241;-69
2023/07/21 05:54:29;;;;;;;7.40;4.78;;;;;;;11.58;100.00;98116.63;4172666;28;20029;-70
2023/07/21 05:56:29;;;;;;;6.07;4.63;;;;;;;11.63;100.00;98107.13;4171328;28;20076;-70
2023/07/21 05:58:29;;;;;;;5.50;4.85;;;;;;;11.69;100.00;98106.34;4172778;28;20123;-70
2023/07/21 06:00:30;;;;;;;9.73;5.63;;;;;;;11.73;100.00;98111.88;4171145;28;20053;-70
2023/07/21 06:02:30;;;;;;;15.32;5.07;;;;;;;11.78;100.00;98112.31;4172076;28;20048;-70
2023/07/21 06:04:31;;;;;;;5.78;5.07;;;;;;;11.87;100.00;98111.16;4172501;28;20037;-70
2023/07/21 06:06:32;;;;;;;7.97;5.63;;;;;;;11.91;100.00;98112.72;4173169;28;20033;-70
2023/07/21 06:08:34;;;;;;;6.72;5.47;;;;;;;12.04;100.00;98118.66;4172466;28;20423;-70
2023/07/21 06:10:34;;;;;;;7.45;5.28;;;;;;;12.08;100.00;98114.72;4172749;28;20041;-70
2023/07/21 06:12:34;;;;;;;7.18;5.32;;;;;;;12.16;100.00;98125.78;4171361;28;20045;-70
2023/07/21 06:14:35;;;;;;;6.70;5.45;;;;;;;12.21;100.00;98123.41;4172623;28;20056;-70
2023/07/21 06:16:35;;;;;;;6.82;4.97;;;;;;;12.29;100.00;98124.19;4173056;28;20048;-70
2023/07/21 06:18:35;;;;;;;7.95;5.30;;;;;;;12.36;100.00;98126.97;4171863;28;20045;-70
2023/07/21 06:20:36;;;;;;;7.47;5.03;;;;;;;12.44;100.00;98136.09;4171793;28;20128;-70
2023/07/21 06:22:36;;;;;;;6.43;4.63;;;;;;;12.47;100.00;98130.50;4172133;28;20377;-70
2023/07/21 06:24:37;;;;;;;8.90;4.63;;;;;;;12.50;100.00;98123.41;4172347;28;20053;-70
2023/07/21 06:26:38;;;;;;;7.00;4.55;;;;;;;12.55;100.00;98121.00;4172184;28;20084;-70
2023/07/21 06:28:38;;;;;;;5.18;4.68;;;;;;;12.59;100.00;98123.78;4172417;28;20076;-70
2023/07/21 06:30:38;;;;;;;6.03;4.97;;;;;;;12.63;100.00;98122.56;4172119;28;20037;-70
2023/07/21 06:32:40;;;;;;;6.82;4.68;;;;;;;12.69;100.00;98117.41;4172045;28;20226;-70
2023/07/21 06:34:40;;;;;;;7.70;5.22;;;;;;;12.69;100.00;98105.50;4172442;28;20246;-70
2023/07/21 06:36:41;;;;;;;8.70;4.63;;;;;;;12.74;100.00;98113.41;4172819;28;20393;-70
2023/07/21 06:38:41;;;;;;;6.25;4.75;;;;;;;12.76;100.00;98103.50;4171743;28;20060;-69
2023/07/21 06:40:41;;;;;;;5.78;4.53;;;;;;;12.76;100.00;98095.16;4171918;28;20048;-69
2023/07/21 06:42:44;;;;;;;7.03;4.97;;;;;;;12.78;100.00;98078.91;4172590;28;20620;-70
2023/07/21 06:44:45;;;;;;;6.55;4.60;;;;;;;12.80;100.00;98092.38;4172393;28;20040;-70
2023/07/21 06:46:47;;;;;;;5.43;4.63;;;;;;;12.76;100.00;98092.41;4172435;28;20078;-70
2023/07/21 06:48:47;;;;;;;5.60;5.03;;;;;;;12.76;100.00;98086.84;4172653;28;20358;-70
2023/07/21 06:50:48;;;;;;;6.15;4.25;;;;;;;12.77;100.00;98077.31;4172873;28;20379;-70
2023/07/21 06:52:49;;;;;;;5.35;4.13;;;;;;;12.76;100.00;98074.94;4171459;28;20052;-70
2023/07/21 06:54:50;;;;;;;5.72;5.13;;;;;;;12.80;100.00;98081.25;4171721;28;20099;-70
2023/07/21 06:56:50;;;;;;;6.50;5.68;;;;;;;12.80;100.00;98087.59;4172702;28;20033;-70
2023/07/21 06:58:50;;;;;;;8.00;5.45;;;;;;;12.81;100.00;98086.41;4172728;28;20049;-70
2023/07/21 07:00:52;;;;;;;6.32;5.70;;;;;;;12.78;100.00;98076.13;4172091;28;20270;-71
2023/07/21 07:02:53;;;;;;;8.82;5.40;;;;;;;12.84;100.00;98080.06;4173955;28;20470;-70
2023/07/21 07:04:54;;;;;;;8.23;5.88;;;;;;;12.88;100.00;98089.16;4175860;28;20048;-70
2023/07/21 07:06:55;;;;;;;6.15;5.32;;;;;;;12.92;100.00;98086.38;4173791;28;20043;-70
2023/07/21 07:08:55;;;;;;;6.60;5.00;;;;;;;13.01;100.00;98091.50;4174972;28;20523;-70
2023/07/21 07:10:56;;;;;;;5.97;5.38;;;;;;;13.07;100.00;98098.19;4175317;28;20043;-70
2023/07/21 07:12:56;;;;;;;7.03;5.47;;;;;;;13.12;100.00;98104.13;4174704;28;20076;-70
2023/07/21 07:14:58;;;;;;;6.75;5.72;;;;;;;13.19;100.00;98106.09;4141271;28;20366;-70
2023/07/21 07:16:58;;;;;;;6.97;5.10;;;;;;;13.18;100.00;98096.19;4175196;28;20040;-70
2023/07/21 07:18:58;;;;;;;7.80;5.20;;;;;;;13.26;100.00;98099.75;4175464;28;20279;-70
2023/07/21 07:20:59;;;;;;;6.53;5.22;;;;;;;13.37;100.00;98119.91;4175101;28;20039;-70
2023/07/21 07:22:59;;;;;;;8.77;6.22;;;;;;;13.41;100.00;98113.16;4174310;28;20465;-70
2023/07/21 07:25:00;;;;;;;5.70;4.85;;;;;;;13.47;100.00;98108.75;4175022;28;20076;-70
2023/07/21 07:27:01;;;;;;;6.82;5.50;;;;;;;13.47;100.00;98107.94;4175481;28;20072;-70
2023/07/21 07:29:03;;;;;;;6.88;5.60;;;;;;;13.44;100.00;98109.56;4174924;28;20207;-70
2023/07/21 07:31:05;;;;;;;6.93;5.10;;;;;;;13.48;100.00;98115.09;4175399;28;20055;-70
2023/07/21 07:33:05;;;;;;;6.90;5.60;;;;;;;13.41;100.00;98109.59;4174914;28;20144;-70
2023/07/21 07:35:06;;;;;;;6.13;5.53;;;;;;;13.39;100.00;98106.41;4175540;28;20080;-70
2023/07/21 07:37:06;;;;;;;6.20;5.50;;;;;;;13.43;100.00;98107.19;4175240;28;20056;-70
2023/07/21 07:39:07;;;;;;;6.30;5.20;;;;;;;13.52;100.00;98109.53;4174414;28;20029;-70
2023/07/21 07:41:10;;;;;;;5.18;4.47;;;;;;;13.60;100.00;98108.28;4175281;28;20121;-70
2023/07/21 07:43:11;;;;;;;6.80;5.28;;;;;;;13.58;100.00;98096.78;4173863;28;20477;-70
2023/07/21 07:45:11;;;;;;;6.80;5.10;;;;;;;13.67;100.00;98099.91;4175367;28;20044;-70
2023/07/21 07:47:12;;;;;;;8.75;5.60;;;;;;;13.72;100.00;98094.69;4175158;28;20444;-70
2023/07/21 07:49:12;;;;;;;5.90;5.25;;;;;;;13.75;100.00;98096.66;4170557;28;20049;-70
2023/07/21 07:51:13;;;;;;;6.88;4.97;;;;;;;13.69;100.00;98089.94;4170313;28;20624;-70
2023/07/21 07:53:14;;;;;;;6.65;5.20;;;;;;;13.77;100.00;98094.25;4171155;28;20159;-70
2023/07/21 07:55:15;;;;;;;7.15;4.90;;;;;;;13.88;100.00;98094.16;4173628;28;20106;-70
2023/07/21 07:57:16;;;;;;;6.70;5.15;;;;;;;13.91;100.00;98098.94;4173911;28;20494;-70
2023/07/21 07:59:16;;;;;;;6.68;5.53;;;;;;;13.96;100.00;98109.59;4173486;28;20052;-70
2023/07/21 08:01:16;;;;;;;6.65;5.10;;;;;;;14.04;100.00;98102.78;4174548;28;20033;-70
2023/07/21 08:03:16;;;;;;;6.07;4.72;;;;;;;14.17;100.00;98105.06;4172085;28;20497;-70
2023/07/21 08:05:17;;;;;;;7.55;5.10;;;;;;;14.21;100.00;98105.81;4172872;28;20128;-70
2023/07/21 08:07:18;;;;;;;4.82;4.28;;;;;;;14.27;100.00;98109.75;4171791;28;20560;-70
2023/07/21 08:09:18;;;;;;;5.32;4.18;;;;;;;14.30;100.00;98106.13;4172587;28;20091;-70
2023/07/21 08:11:19;;;;;;;5.78;5.10;;;;;;;14.35;100.00;98111.25;4173515;28;20143;-70
2023/07/21 08:13:19;;;;;;;4.57;4.03;;;;;;;14.38;100.00;98110.41;4171402;28;20041;-70
2023/07/21 08:15:19;;;;;;;5.07;4.40;;;;;;;14.42;100.00;98113.97;4173425;28;20128;-70
2023/07/21 08:17:20;;;;;;;7.30;4.93;;;;;;;14.47;100.00;98101.63;4173048;28;20037;-70
2023/07/21 08:19:20;;;;;;;7.40;5.00;;;;;;;14.52;100.00;98109.53;4174438;28;20099;-70
2023/07/21 08:21:22;;;;;;;7.60;4.78;;;;;;;14.55;100.00;98109.47;4174482;28;20423;-70
2023/07/21 08:23:23;;;;;;;7.28;4.55;;;;;;;14.58;100.00;98094.75;4174047;28;20041;-70
2023/07/21 08:25:25;;;;;;;5.97;4.35;;;;;;;14.66;100.00;98101.03;4170287;28;20053;-70
2023/07/21 08:27:27;;;;;;;4.60;3.90;;;;;;;14.68;100.00;98089.47;4173309;28;20037;-70
2023/07/21 08:29:28;;;;;;;4.53;3.95;;;;;;;14.73;100.00;98094.56;4174108;28;20045;-70
2023/07/21 08:31:28;;;;;;;5.35;4.43;;;;;;;14.79;100.00;98101.28;4174481;28;20040;-70
2023/07/21 08:33:28;;;;;;;7.53;4.78;;;;;;;14.77;100.00;98098.91;4171784;28;20482;-70
2023/07/21 08:35:29;;;;;;;4.35;3.95;;;;;;;14.77;100.00;98095.34;4171678;28;20065;-70
2023/07/21 08:37:30;;;;;;;4.80;4.30;;;;;;;14.78;100.00;98106.06;4163452;28;20381;-70
2023/07/21 08:39:31;;;;;;;4.75;4.07;;;;;;;14.81;100.00;98104.44;4132322;28;20068;-70
2023/07/21 08:41:35;;;;;;;6.07;3.80;;;;;;;14.83;100.00;98097.25;4173764;28;20128;-70
2023/07/21 08:43:36;;;;;;;8.05;4.50;;;;;;;14.90;100.00;98090.81;4173093;28;20469;-70
2023/07/21 08:45:36;;;;;;;5.00;4.30;;;;;;;14.95;100.00;98090.34;4174530;28;20096;-70
2023/07/21 08:47:37;;;;;;;5.70;4.20;;;;;;;14.96;100.00;98089.13;4174219;28;20053;-70
2023/07/21 08:49:40;;;;;;;10.75;4.40;;;;;;;15.00;100.00;98092.69;4174227;28;20124;-70
2023/07/21 08:51:40;;;;;;;4.72;3.75;;;;;;;15.01;100.00;98093.47;4172825;28;20036;-70
2023/07/21 08:53:41;;;;;;;5.88;4.65;;;;;;;15.01;100.00;98085.13;4173365;28;20076;-70
2023/07/21 08:55:41;;;;;;;4.88;4.25;;;;;;;15.00;100.00;98089.91;4173615;28;20481;-70
2023/07/21 08:57:42;;;;;;;5.10;4.50;;;;;;;15.02;100.00;98093.03;4173560;28;20113;-70
2023/07/21 08:59:42;;;;;;;5.20;4.20;;;;;;;15.09;100.00;98092.19;4174322;28;20165;-70
2023/07/21 09:01:43;;;;;;;7.68;4.22;;;;;;;15.17;100.00;98088.09;4173424;28;20048;-70
2023/07/21 09:03:45;;;;;;;5.43;3.65;;;;;;;15.25;100.00;98086.00;4172680;28;20044;-70
2023/07/21 09:05:46;;;;;;;9.45;4.20;;;;;;;15.43;100.00;98080.97;4173059;28;20045;-70
2023/07/21 09:07:47;;;;;;;4.75;3.92;;;;;;;15.57;100.00;98091.13;4173981;28;20114;-69
2023/07/21 09:09:48;;;;;;;4.95;3.80;;;;;;;15.64;100.00;98077.13;4172857;28;20481;-69
2023/07/21 09:11:50;;;;;;;4.60;3.88;;;;;;;15.76;100.00;98084.09;4173751;28;20386;-70
2023/07/21 09:13:57;;;;;;;6.53;4.20;;;;;;;15.82;100.00;98071.25;4171816;28;20049;-70
2023/07/21 09:16:02;;;;;;;4.18;3.78;;;;;;;15.82;100.00;98082.41;4173566;28;20064;-70
2023/07/21 09:18:03;;;;;;;5.03;4.07;;;;;;;15.87;100.00;98070.75;4173411;28;20045;-70
2023/07/21 09:20:07;;;;;;;5.95;4.32;;;;;;;15.82;100.00;98072.03;4172941;28;20209;-70
2023/07/21 09:22:08;;;;;;;5.63;3.70;;;;;;;15.76;100.00;98070.16;4173370;28;20044;-70